Date,TemperatureHighF,TemperatureAvgF,TemperatureLowF,DewpointHighF,DewpointAvgF,DewpointLowF,HumidityHigh,HumidityAvg,HumidityLow,PressureMaxIn,PressureMinIn,WindSpeedMaxMPH,WindSpeedAvgMPH,GustSpeedMaxMPH,PrecipitationSumIn
2013-1-1,27.7,19.0,4.3,15.7,9.3,-5.2,76,66,51,27.33,27.22,6,1,6,0.02
2013-1-2,35.1,26.2,7.5,99.9,17.9,-2.1,100,70,57,27.40,27.19,12,4,12,0.04
2013-1-3,35.4,21.5,5.0,26.2,11.2,-5.7,100,65,49,27.47,27.34,6,1,6,0.00
2013-1-4,38.1,16.0,3.7,23.8,3.1,-6.4,64,56,44,27.35,27.16,6,2,6,0.25
2013-1-5,40.1,18.0,0.9,27.1,6.5,-10.5,68,60,50,27.30,26.74,11,4,11,0.24
2013-1-6,39.9,24.4,16.7,26.2,15.9,8.6,75,70,57,27.30,26.89,4,1,4,0.15
2013-1-7,34.3,19.8,14.7,21.1,11.5,7.6,76,70,58,27.14,27.03,10,3,10,0.00
2013-1-9,48.9,39.1,21.7,99.9,29.1,15.3,76,66,54,29.91,27.30,8,2,8,0.00
2013-1-10,38.7,34.0,15.4,34.5,28.9,1.7,89,81,54,27.31,26.69,13,3,13,0.06
2013-1-11,74.1,30.0,17.2,52.6,24.1,4.2,90,79,47,28.95,26.48,26,5,26,0.00
2013-1-12,19.8,14.3,5.0,4.4,-0.7,-6.9,58,51,43,27.25,26.77,20,7,20,0.00
2013-1-13,21.4,8.5,-0.4,4.0,-4.9,-12.4,61,54,44,27.37,27.24,14,3,14,0.06
2013-1-14,27.3,12.3,-1.1,11.8,0.5,-13.1,70,59,46,27.44,27.22,6,1,6,0.04
2013-1-15,34.5,15.2,-1.3,16.4,3.5,-12.4,70,60,43,27.44,27.14,8,1,8,0.04
2013-1-16,48.0,35.7,21.4,27.9,23.0,12.5,75,60,44,27.41,27.13,15,5,15,0.02
2013-1-17,50.4,31.9,21.0,28.2,20.2,10.0,75,63,38,27.55,27.19,5,1,5,0.02
2013-1-18,55.2,35.5,21.2,31.0,21.4,13.6,77,59,26,27.31,27.09,11,2,11,0.00
2013-1-19,55.2,38.5,26.6,26.0,21.9,17.7,77,55,23,27.35,27.10,16,3,16,0.01
2013-1-20,42.6,26.1,12.2,29.9,17.6,4.3,85,71,53,27.47,26.96,27,4,27,0.01
2013-1-21,36.1,23.0,12.7,21.8,14.8,6.3,83,71,54,27.44,27.24,9,3,9,0.00
2013-1-22,41.9,25.8,17.8,26.9,17.7,3.8,82,72,54,27.27,27.18,8,2,8,0.07
2013-1-23,49.5,29.6,18.5,31.6,18.6,8.5,79,65,36,27.43,27.20,7,2,7,0.08
2013-1-24,36.0,22.2,11.5,24.9,12.2,3.4,73,65,54,27.43,27.10,14,5,14,0.01
2013-1-25,55.4,34.1,18.3,30.6,21.3,-15.5,76,62,5,29.48,26.56,13,2,13,0.02
2013-1-26,57.0,38.9,25.2,33.8,27.2,-0.3,82,64,39,27.23,26.95,9,2,9,0.01
2013-1-27,54.3,40.7,31.1,43.6,36.3,-11.2,99,85,65,27.27,26.82,9,2,9,0.17
2013-1-28,41.9,33.9,26.6,39.8,31.0,7.5,96,89,81,27.36,26.72,21,3,21,0.09
2013-1-29,36.0,31.9,14.5,29.7,26.5,6.5,88,80,70,27.30,26.80,14,5,14,0.15
2013-1-30,45.0,26.1,16.2,19.8,11.7,3.6,74,56,28,27.26,26.94,24,7,24,0.17
2013-1-31,33.3,25.8,21.7,22.8,12.4,4.5,72,57,42,27.52,27.00,16,4,16,0.24
2013-2-1,55.2,35.0,18.5,35.6,23.1,11.0,84,64,31,27.36,27.08,18,2,18,0.08
2013-2-2,53.6,37.8,26.6,30.2,23.1,16.1,86,60,24,27.38,27.25,17,4,17,0.01
2013-2-3,122.5,35.3,18.9,83.3,20.7,11.6,78,58,29,27.39,26.95,14,2,29,0.00
2013-2-4,58.3,37.7,21.4,30.8,21.2,14.8,77,55,22,27.25,26.93,7,2,7,0.09
2013-2-5,58.8,39.5,25.2,29.7,23.2,17.4,76,55,27,27.27,27.00,9,2,9,0.09
2013-2-6,61.2,41.4,25.9,32.3,25.2,-10.5,81,56,5,29.48,26.88,14,2,14,0.19
2013-2-7,54.7,40.4,23.7,34.2,23.0,11.2,87,54,21,27.26,27.09,15,4,15,0.00
2013-2-8,57.9,37.2,17.6,30.5,19.7,7.5,79,52,29,27.26,26.94,24,7,24,0.09
2013-2-9,58.3,43.1,28.0,42.2,25.7,15.8,89,53,26,26.94,26.55,23,7,23,0.04
2013-2-10,41.2,30.5,25.9,39.6,24.1,15.8,94,77,61,27.15,26.49,24,7,24,0.19
2013-2-11,36.9,26.5,18.1,16.5,13.3,7.8,68,58,36,27.27,26.91,15,4,15,0.15
2013-2-12,42.8,28.8,16.3,20.8,13.7,7.5,76,56,29,27.20,26.78,15,4,15,0.15
2013-2-13,40.5,31.5,23.7,28.0,19.9,-37.7,74,63,5,31.75,26.95,6,1,6,0.26
2013-2-14,40.8,33.1,21.4,31.2,23.1,14.3,83,68,41,27.40,27.08,22,5,22,0.88
2013-2-15,36.9,24.9,14.9,22.1,12.8,8.0,79,62,30,27.44,27.39,17,4,17,0.00
2013-2-16,58.5,34.5,18.7,26.1,16.7,9.2,67,52,27,27.40,27.07,23,3,23,0.09
2013-2-17,68.0,42.1,20.5,32.3,20.3,14.1,78,49,15,27.08,26.66,22,2,22,0.00
2013-2-18,44.4,37.0,26.6,29.3,21.5,12.8,72,55,32,27.25,26.75,23,10,23,0.00
2013-2-19,56.7,31.3,12.6,26.3,15.8,4.3,75,55,31,27.34,27.06,15,4,15,0.28
2013-2-20,56.7,32.5,19.8,27.0,21.4,0.8,78,65,31,27.20,26.95,10,4,10,0.28
2013-2-21,39.7,38.1,33.1,29.3,28.7,27.0,78,69,66,27.11,26.97,6,6,6,0.09
2013-2-22,39.7,32.4,8.8,29.3,21.8,-2.0,70,65,56,27.19,27.04,6,4,6,0.12
2013-2-23,46.6,25.6,6.8,28.2,13.1,-2.5,78,61,37,27.06,26.84,8,2,8,0.33
2013-2-24,37.9,27.4,15.8,27.8,20.2,10.0,86,74,60,27.18,26.88,18,4,18,0.01
2013-2-25,38.1,30.9,20.3,28.5,23.1,11.4,87,73,59,27.25,27.02,13,4,13,0.32
2013-2-26,38.5,23.0,14.4,24.0,13.3,7.9,78,67,47,27.11,26.93,8,2,8,0.00
2013-2-27,51.4,33.0,23.5,33.3,20.9,13.5,72,62,34,27.30,26.98,18,6,18,0.61
2013-2-28,50.9,35.2,28.4,27.8,24.0,21.5,79,65,34,27.35,27.03,4,0,4,0.31
2013-3-1,42.1,32.7,24.4,30.5,23.8,9.8,83,70,46,27.42,27.20,17,3,17,1.03
2013-3-2,59.2,40.0,22.8,37.9,28.9,16.6,83,66,40,27.42,27.14,10,2,10,0.19
2013-3-3,68.4,47.4,30.2,41.1,33.2,18.1,85,63,23,27.14,26.74,12,1,12,0.38
2013-3-4,47.3,38.5,26.4,37.1,22.8,7.9,84,55,28,27.30,26.72,21,10,21,0.57
2013-3-5,43.5,30.8,22.3,14.4,9.5,4.4,63,43,22,27.43,27.18,17,6,17,0.38
2013-3-6,49.5,31.7,17.4,29.2,20.6,10.6,84,65,45,27.40,27.06,21,6,21,0.19
2013-3-7,54.3,36.8,24.6,33.2,26.8,20.8,88,69,42,27.14,27.01,10,3,10,0.19
2013-3-8,53.4,43.0,29.3,49.1,34.7,24.2,91,73,53,27.13,26.78,13,3,13,0.00
2013-3-9,53.2,39.8,30.7,51.6,37.7,28.6,98,92,85,27.05,26.67,26,11,26,0.33
2013-3-10,31.8,26.5,18.5,30.0,15.5,10.0,97,64,45,27.22,26.91,30,13,30,0.14
2013-3-11,51.8,33.8,16.7,33.5,21.8,9.0,76,63,36,27.19,27.01,18,4,18,0.00
2013-3-12,46.4,37.1,25.3,29.6,17.1,7.3,85,49,21,27.40,26.97,24,6,24,0.04
2013-3-13,68.7,42.9,22.8,33.0,23.3,11.5,71,49,21,27.40,27.12,13,2,13,0.04
2013-3-14,75.0,54.3,38.7,34.0,30.6,-26.7,72,45,5,27.24,24.95,8,1,8,0.00
2013-3-15,81.0,57.6,25.5,41.0,30.7,19.8,82,44,13,27.34,26.87,16,3,16,0.07
2013-3-16,54.7,43.4,33.8,34.9,30.9,23.3,82,63,35,27.37,26.98,13,4,13,0.00
2013-3-17,55.8,38.9,30.4,39.1,32.9,27.4,99,82,43,27.11,26.69,24,8,24,0.09
2013-3-18,51.1,39.6,26.4,32.6,20.8,10.9,84,52,22,27.17,26.91,18,6,18,0.00
2013-3-19,52.0,37.2,22.8,24.5,16.6,6.7,71,46,21,27.42,27.11,17,4,17,0.19
2013-3-20,54.1,35.2,15.1,21.5,14.7,7.2,74,48,21,27.48,26.99,17,6,17,0.00
2013-3-21,54.0,39.2,25.5,30.5,22.0,14.6,87,52,29,27.11,26.80,15,6,15,0.28
2013-3-22,49.1,39.7,24.6,32.2,28.6,21.2,91,67,47,27.09,26.94,15,6,15,0.26
2013-3-23,48.7,48.7,48.7,29.4,29.4,29.4,47,47,47,26.94,26.94,10,10,10,0.00
2013-3-24,48.7,48.7,48.7,29.4,29.4,29.4,47,47,47,26.94,26.94,10,10,10,0.00
2013-3-25,48.7,48.7,48.7,29.4,29.4,29.4,47,47,47,26.94,26.94,10,10,10,0.00
2013-3-26,48.7,48.7,48.7,29.4,29.4,29.4,47,47,47,27.17,26.94,10,5,10,0.00
2013-3-27,48.7,48.7,48.7,29.4,29.4,29.4,47,47,47,27.17,27.17,0,0,0,0.00
2013-3-28,48.7,48.7,48.7,29.4,29.4,29.4,47,47,47,27.17,27.17,0,0,0,0.00
2013-3-29,48.7,48.7,48.7,29.4,29.4,29.4,47,47,47,27.17,27.17,0,0,0,0.00
2013-3-30,48.7,48.7,48.7,29.4,29.4,29.4,47,47,47,27.17,27.17,0,0,0,0.00
2013-3-31,48.7,48.7,48.7,29.4,29.4,29.4,47,47,47,27.17,27.17,0,0,0,0.00
2013-4-1,48.7,48.7,48.7,29.4,29.4,29.4,47,47,47,27.17,27.17,0,0,0,0.00
2013-4-2,48.7,48.7,48.7,29.4,29.4,29.4,47,47,47,27.17,27.17,0,0,0,0.00
2013-4-3,48.7,48.7,48.7,29.4,29.4,29.4,47,47,47,27.17,27.17,0,0,0,0.00
2013-4-4,48.7,48.7,48.7,29.4,29.4,29.4,47,47,47,27.17,27.17,0,0,0,0.00
2013-4-5,48.7,48.7,48.7,29.4,29.4,29.4,47,47,47,27.17,27.17,0,0,0,0.00
2013-4-6,48.7,48.7,48.7,29.4,29.4,29.4,47,47,47,27.17,27.17,0,0,0,0.00
2013-4-7,48.7,48.7,48.7,29.4,29.4,29.4,47,47,47,27.17,27.17,0,0,0,0.00
2013-4-8,48.7,48.7,48.7,29.4,29.4,29.4,47,47,47,27.17,27.17,0,0,0,0.00
2013-4-9,48.7,48.7,48.7,29.4,29.4,29.4,47,47,47,27.17,27.17,0,0,0,0.00
2013-4-10,48.7,48.7,48.7,29.4,29.4,29.4,47,47,47,27.17,27.17,0,0,0,0.00
2013-4-11,48.7,48.7,48.7,29.4,29.4,29.4,47,47,47,27.17,27.17,0,0,0,0.00
2013-4-12,48.7,48.7,48.7,29.4,29.4,29.4,47,47,47,27.17,27.17,0,0,0,0.00
2013-4-16,48.7,48.7,48.7,29.4,29.4,29.4,47,47,47,27.17,27.17,0,0,0,0.00
2013-4-17,48.7,48.7,48.7,29.4,29.4,29.4,47,47,47,27.17,27.17,0,0,0,0.00
2013-4-18,48.7,48.7,48.7,29.4,29.4,29.4,47,47,47,27.17,27.17,0,0,0,0.00
2013-4-19,48.7,48.7,48.7,29.4,29.4,29.4,47,47,47,27.17,27.17,0,0,0,0.00
2013-4-20,48.7,48.7,48.7,29.4,29.4,29.4,47,47,47,27.17,27.17,0,0,0,0.00
2013-4-21,48.7,48.7,48.7,29.4,29.4,29.4,47,47,47,27.17,27.17,0,0,0,0.00
2013-4-22,48.7,48.7,48.7,29.4,29.4,29.4,47,47,47,27.17,27.17,0,0,0,0.00
2013-4-23,48.7,48.7,48.7,29.4,29.4,29.4,47,47,47,27.17,27.17,0,0,0,0.00
2013-4-24,48.7,48.7,48.7,29.4,29.4,29.4,47,47,47,27.17,27.17,0,0,0,0.00
2013-4-25,48.7,48.7,48.7,29.4,29.4,29.4,47,47,47,27.17,27.17,0,0,0,0.00
2013-4-26,48.7,48.7,48.7,29.4,29.4,29.4,47,47,47,27.17,27.17,0,0,0,0.00
2013-4-27,48.7,48.7,48.7,29.4,29.4,29.4,47,47,47,27.17,27.17,0,0,0,0.00
2013-4-28,48.7,48.7,48.7,29.4,29.4,29.4,47,47,47,27.17,27.17,0,0,0,0.00
2013-4-29,48.7,48.7,48.7,29.4,29.4,29.4,47,47,47,27.17,27.17,0,0,0,0.00
2013-4-30,48.7,48.7,48.7,29.4,29.4,29.4,47,47,47,27.17,27.17,0,0,0,0.00
2013-5-1,48.7,48.7,48.7,29.4,29.4,29.4,47,47,47,27.17,27.17,0,0,0,0.00
2013-5-2,48.7,48.7,48.7,29.4,29.4,29.4,47,47,47,27.17,27.17,0,0,0,0.00
2013-5-3,48.7,48.7,48.7,29.4,29.4,29.4,47,47,47,27.17,27.17,0,0,0,0.00
2013-5-4,48.7,48.7,48.7,29.4,29.4,29.4,47,47,47,27.17,27.17,0,0,0,0.00
2013-5-5,48.7,48.7,48.7,29.4,29.4,29.4,47,47,47,27.17,27.17,0,0,0,0.00
2013-5-6,48.7,48.7,48.7,29.4,29.4,29.4,47,47,47,27.17,27.17,0,0,0,0.00
2013-5-7,48.7,48.7,48.7,29.4,29.4,29.4,47,47,47,27.17,27.17,0,0,0,0.00
2013-5-8,48.7,48.7,48.7,29.4,29.4,29.4,47,47,47,27.17,27.17,0,0,0,0.00
2013-5-9,48.7,48.7,48.7,29.4,29.4,29.4,47,47,47,27.17,27.17,0,0,0,0.00
2013-5-10,48.7,48.7,48.7,29.4,29.4,29.4,47,47,47,27.17,27.17,0,0,0,0.00
2013-5-11,73.4,56.7,48.7,37.6,30.2,22.8,56,39,17,27.48,26.80,12,2,12,0.00
2013-5-12,82.8,62.7,30.9,50.8,41.3,27.8,88,50,21,27.32,26.98,24,3,13,0.00
2013-5-13,98.4,73.6,49.5,57.4,47.3,33.2,88,49,12,27.17,26.75,16,2,16,0.00
2013-5-14,101.1,76.3,25.0,59.5,43.4,15.9,93,40,11,27.15,26.86,15,4,15,0.00
2013-5-15,88.7,78.6,68.2,52.9,49.3,44.2,46,36,24,26.98,26.92,12,5,12,0.07
2013-5-16,90.3,65.4,36.7,61.7,53.6,9.0,95,68,33,27.39,26.89,15,2,15,0.52
2013-5-17,88.0,73.2,57.9,66.0,59.2,55.3,97,66,37,27.00,26.88,23,7,23,0.02
2013-5-18,85.8,73.3,56.3,69.2,62.6,33.5,94,71,42,27.18,26.74,20,6,20,0.00
2013-5-19,73.2,61.6,55.0,57.9,52.1,32.6,99,72,42,27.02,26.75,28,6,28,0.50
2013-5-20,67.5,59.1,53.6,54.3,49.9,23.9,95,73,48,26.96,26.83,21,7,21,0.00
2013-5-21,65.5,57.2,50.4,49.1,45.5,34.4,84,66,44,27.03,26.92,26,9,26,0.02
2013-5-22,73.2,59.0,44.4,50.7,47.0,12.9,95,68,38,27.18,27.01,17,5,17,0.00
2013-5-23,76.8,64.3,50.5,54.2,49.9,47.1,91,62,35,27.29,26.93,15,5,15,0.00
2013-5-24,83.3,67.3,56.8,66.2,58.0,20.2,97,74,42,27.24,26.94,26,10,26,0.20
2013-5-25,91.2,74.7,61.9,68.0,61.0,19.4,99,67,22,27.34,26.90,22,7,22,0.01
2013-5-26,95.0,78.5,61.9,66.6,61.6,33.0,96,61,26,27.24,26.85,12,4,12,0.00
2013-5-27,75.6,68.7,57.0,67.5,61.9,46.1,95,80,49,27.17,26.77,21,3,21,0.00
2013-5-28,98.2,70.7,53.1,67.3,58.3,36.9,99,69,34,26.95,26.72,14,4,14,0.00
2013-5-29,85.3,65.0,54.0,67.8,59.1,40.6,99,83,40,26.97,26.50,17,5,17,0.93
2013-5-30,81.1,64.4,50.2,58.0,50.5,40.3,99,66,27,26.95,26.72,10,2,10,0.00
2013-5-31,87.3,63.9,46.6,54.9,42.9,30.8,96,54,19,27.02,26.86,24,6,24,0.00
2013-6-1,68.4,59.6,52.7,47.4,45.5,42.9,76,61,42,27.26,27.01,29,11,29,0.00
2013-6-2,78.3,62.3,41.7,53.3,47.3,40.1,95,62,36,27.29,26.83,15,4,15,0.00
2013-6-3,90.0,70.6,51.1,61.7,52.7,45.4,85,57,31,27.05,26.75,26,8,26,0.00
2013-6-4,133.0,66.6,60.8,61.5,56.1,39.8,91,71,5,31.75,26.90,13,4,13,0.00
2013-6-5,69.4,59.0,51.6,54.4,48.3,42.3,88,69,45,31.75,27.14,49,6,16,0.02
2013-6-6,79.5,63.5,43.3,54.8,48.8,41.5,95,63,38,27.23,27.10,8,2,8,0.00
2013-6-9,133.7,78.3,64.4,53.1,50.5,40.3,60,41,5,27.04,24.19,8,2,8,0.00
2013-6-10,102.4,80.1,53.8,68.2,55.7,44.4,81,49,15,27.05,26.84,14,3,14,0.00
2013-6-11,102.2,74.9,55.4,67.9,60.2,49.5,85,63,26,26.89,24.19,25,3,25,0.00
2013-6-12,91.6,78.5,65.7,65.7,59.5,49.1,91,56,24,27.22,26.64,20,6,20,0.00
2013-6-13,85.5,72.0,52.7,61.8,56.4,50.1,98,60,38,27.28,26.73,12,4,12,0.07
2013-6-14,92.8,79.7,64.9,72.1,63.4,-6.6,91,61,5,28.73,26.90,17,5,47,0.28
2013-6-15,91.6,78.4,55.0,68.1,62.6,45.8,87,60,42,27.12,26.98,15,2,15,0.00
2013-6-16,92.7,76.0,63.9,65.4,60.6,50.7,92,63,31,27.17,27.00,24,4,24,0.07
2013-6-17,86.7,72.3,55.6,66.3,59.2,50.3,99,67,37,27.24,26.84,10,2,10,0.00
2013-6-18,91.6,75.0,60.1,68.4,60.5,54.7,97,65,32,27.24,27.04,15,4,15,0.11
2013-6-19,87.8,76.1,59.4,67.9,61.7,47.2,91,62,48,27.29,26.91,24,7,24,0.00
2013-6-20,95.2,81.8,66.0,69.6,65.3,60.2,88,60,36,26.95,26.85,13,4,13,0.00
2013-6-21,99.0,83.1,68.7,71.5,59.6,2.8,65,48,3,27.12,24.19,23,6,23,0.13
2013-6-22,91.8,78.4,61.9,70.3,63.9,53.1,87,63,45,26.98,26.78,23,5,23,0.07
2013-6-23,87.4,73.6,60.4,67.0,61.6,50.6,94,69,42,27.09,26.91,12,3,12,0.01
2013-6-24,94.6,78.3,61.0,72.0,65.5,47.1,96,68,41,27.07,26.80,17,3,17,0.35
2013-6-25,93.6,80.9,67.1,70.2,60.5,50.0,88,55,23,26.98,26.95,18,5,18,0.00
2013-6-26,103.1,82.1,60.1,67.8,60.2,44.3,90,54,14,27.11,26.90,8,2,8,0.00
2013-6-27,93.2,84.4,71.8,67.6,64.2,58.9,76,52,38,27.25,27.06,20,7,20,0.00
2013-6-28,93.6,79.8,64.0,70.0,60.2,52.1,96,57,27,27.28,26.98,16,4,16,0.00
2013-6-29,90.5,76.2,61.9,67.5,56.8,51.2,84,54,34,27.25,27.07,16,4,16,0.00
2013-6-30,86.5,72.5,57.2,63.4,53.6,48.2,83,54,30,27.30,27.11,40,4,40,0.00
2013-7-1,84.9,70.4,54.3,58.6,51.8,44.9,90,56,28,27.37,27.29,10,2,10,0.00
2013-7-2,87.3,70.5,50.0,58.8,47.4,40.9,84,49,23,27.36,27.04,7,1,7,0.00
2013-7-3,95.0,73.4,51.4,56.5,47.5,39.7,80,46,18,27.24,27.01,21,2,21,0.00
2013-7-4,97.9,80.4,60.6,61.0,51.2,44.8,68,39,20,27.06,26.86,13,4,13,0.00
2013-7-5,99.7,82.4,65.7,63.4,55.8,49.8,64,43,23,26.99,26.85,18,5,18,0.00
2013-7-6,99.1,85.0,68.4,66.9,59.7,55.2,70,45,25,26.94,26.87,15,4,15,0.00
2013-7-7,97.7,83.6,67.5,70.0,64.6,60.3,93,55,34,27.18,26.95,16,2,16,0.09
2013-7-8,97.2,81.7,65.7,73.7,67.5,63.8,97,67,34,27.19,26.87,12,2,57,0.44
2013-7-9,99.9,84.1,67.6,72.2,67.2,55.2,95,62,26,27.20,27.01,11,3,11,0.00
2013-7-10,90.0,78.9,70.2,71.4,65.3,55.9,92,66,35,27.30,27.01,17,4,17,0.05
2013-7-11,98.2,83.3,68.5,70.3,65.6,58.8,89,59,34,27.21,27.00,15,5,15,0.00
2013-7-12,106.3,89.1,71.1,70.5,63.2,44.0,78,48,14,27.05,26.92,14,5,14,0.00
2013-7-13,104.9,90.6,73.2,70.0,64.5,57.0,77,45,25,27.14,26.94,8,3,8,0.00
2013-7-14,90.0,77.3,69.8,72.4,67.6,51.4,96,74,50,27.26,27.03,13,2,13,0.15
2013-7-15,89.1,76.1,64.4,99.9,62.1,52.1,98,66,5,27.97,27.21,15,4,15,0.05
2013-7-16,90.1,75.5,65.3,66.0,62.7,51.8,93,67,38,27.38,27.27,25,7,25,0.00
2013-7-17,79.2,66.3,60.8,66.0,61.4,48.1,95,85,63,27.42,27.21,11,2,11,0.00
2013-7-18,93.2,84.9,77.2,63.3,62.1,61.1,62,47,36,27.11,27.04,12,4,12,0.07
2013-7-19,99.9,79.5,67.1,72.6,65.8,49.5,86,65,36,27.14,26.95,12,2,12,0.00
2013-7-20,95.2,78.6,63.0,69.5,65.5,55.4,96,68,34,27.15,26.88,24,3,24,0.00
2013-7-21,94.1,76.7,59.4,65.4,60.4,56.4,93,62,36,27.13,26.95,11,4,11,0.00
2013-7-22,101.1,89.0,75.2,99.9,56.6,-0.5,64,33,5,30.34,24.95,8,3,8,0.20
2013-7-23,97.9,86.3,69.3,65.5,61.8,7.7,72,46,7,27.17,24.30,10,3,10,0.22
2013-7-24,108.0,81.8,62.8,99.9,65.1,57.0,94,62,34,27.32,27.13,21,2,26,0.37
2013-7-25,94.8,72.7,63.7,70.6,65.6,58.4,95,80,56,27.32,27.04,21,3,21,0.09
2013-7-26,105.6,71.9,60.3,67.7,61.0,56.5,99,72,39,27.36,27.00,17,3,17,0.00
2013-7-27,93.9,63.0,57.9,59.5,55.7,53.8,92,77,63,27.29,27.05,16,3,16,0.04
2013-7-28,87.3,59.9,56.7,60.5,57.4,52.8,99,92,77,27.22,27.00,9,3,9,0.02
2013-7-29,87.8,66.4,59.9,68.8,63.6,59.0,99,91,74,27.32,27.07,7,2,7,0.02
2013-7-30,91.4,75.4,61.7,70.8,64.3,60.9,99,73,40,27.25,27.16,8,2,8,0.00
2013-7-31,90.3,79.9,66.7,72.1,66.3,60.8,99,66,38,27.39,27.21,8,3,8,0.17
2013-8-1,96.1,81.2,66.2,70.1,66.3,62.7,92,64,36,27.29,26.97,23,5,23,0.00
2013-8-2,94.1,75.7,64.9,71.5,64.1,59.6,87,70,39,27.14,27.01,12,4,12,0.00
2013-8-3,77.4,71.8,68.7,67.9,65.8,63.5,93,82,66,27.30,27.14,14,4,14,0.00
2013-8-4,89.6,74.8,64.0,70.4,66.8,57.2,99,78,52,27.27,26.93,10,3,10,0.01
2013-8-5,97.3,78.4,67.5,76.5,68.9,58.9,98,77,32,27.15,26.97,14,3,14,0.58
2013-8-6,92.7,77.3,61.7,73.6,67.5,61.0,98,75,35,27.17,26.98,10,2,10,0.09
2013-8-7,93.7,69.6,59.5,71.6,65.4,59.3,99,87,67,27.24,27.08,21,2,21,0.70
2013-8-8,81.1,69.4,62.2,67.5,62.6,57.9,99,82,47,27.22,27.12,6,1,6,0.14
2013-8-9,86.4,71.4,57.2,67.1,60.6,55.5,99,73,38,27.30,27.20,7,2,7,0.00
2013-8-10,87.1,73.4,59.5,66.7,61.0,55.5,95,68,42,27.32,27.18,20,5,20,0.00
2013-8-11,86.0,74.3,62.8,70.2,66.3,54.8,97,78,56,27.24,27.14,8,1,8,0.00
2013-8-12,88.5,75.3,63.1,69.8,64.9,61.0,97,73,46,27.23,27.11,8,2,8,0.00
2013-8-13,86.0,73.2,65.3,67.2,63.9,61.8,94,74,47,27.31,27.22,8,2,8,0.01
2013-8-14,87.3,73.3,64.4,68.8,64.4,60.8,96,76,46,27.29,27.12,8,2,8,0.00
2013-8-15,95.7,72.5,60.1,66.2,62.0,56.3,98,72,44,27.24,27.11,16,2,16,0.13
2013-8-16,82.8,73.2,66.7,68.0,65.8,62.3,96,79,56,27.26,27.02,9,2,9,0.00
2013-8-17,77.0,70.6,65.3,68.1,66.4,64.1,98,87,69,27.26,27.15,10,4,10,0.00
2013-8-18,81.0,72.6,67.1,67.7,65.9,64.6,92,80,63,27.20,27.11,14,5,14,0.00
2013-8-19,95.4,78.4,61.7,71.5,65.6,60.5,97,69,37,27.17,27.05,12,3,12,0.00
2013-8-20,99.1,79.8,62.8,70.5,64.7,57.3,95,66,28,27.10,27.01,16,4,16,0.00
2013-8-21,136.2,91.3,81.5,66.9,63.4,42.0,52,41,5,27.09,25.71,12,4,12,0.00
2013-8-22,89.6,78.7,68.9,66.9,65.0,60.1,89,65,45,27.20,27.03,17,3,17,0.31
2013-8-23,90.3,77.4,67.1,72.0,66.5,57.1,98,72,43,27.26,27.00,12,3,12,0.34
2013-8-24,101.1,84.7,65.8,78.9,59.9,54.1,79,47,24,27.29,27.02,23,8,23,0.33
2013-8-25,102.6,87.1,71.4,65.2,61.2,57.4,72,45,24,27.19,27.09,21,8,21,0.00
2013-8-26,105.4,88.7,73.2,68.7,60.3,47.6,66,42,15,27.22,27.06,18,7,18,0.17
2013-8-27,104.7,87.0,69.4,67.2,58.7,44.8,70,42,17,27.22,27.03,14,4,14,0.17
2013-8-28,98.8,81.0,54.1,66.0,59.5,41.8,77,51,24,27.24,27.06,12,1,12,0.14
2013-8-29,105.3,84.1,74.1,67.3,58.8,39.8,72,50,13,27.16,27.05,9,2,9,0.14
2013-8-30,102.7,81.5,63.3,70.8,63.5,55.4,86,58,32,27.16,27.03,15,2,15,0.01
2013-8-31,97.2,80.4,65.3,71.0,65.6,60.0,90,63,40,27.22,26.96,14,3,14,0.02
2013-9-1,85.1,74.8,64.6,64.9,56.7,45.9,87,58,26,27.24,27.09,10,2,10,0.02
2013-9-2,95.0,73.3,55.4,65.6,55.5,33.3,90,60,27,27.25,27.11,11,2,11,0.02
2013-9-3,95.0,77.0,72.0,69.0,55.5,42.8,54,48,35,27.22,27.09,5,0,5,0.02
2013-9-4,95.0,94.9,93.9,69.0,68.5,62.1,43,42,35,27.22,27.17,0,0,0,0.00
2013-9-23,59.7,58.8,57.4,52.3,51.5,50.4,78,77,76,27.00,26.91,20,11,20,0.26
2013-9-24,77.5,62.1,47.1,52.4,44.6,35.7,97,61,23,27.17,27.01,15,3,15,0.26
2013-9-25,52.3,40.1,32.0,44.3,15.1,-16.7,88,50,11,31.76,26.99,2,0,2,0.00
2013-9-26,83.1,68.8,52.9,57.8,52.6,46.2,83,59,35,31.76,26.78,10,2,10,0.01
2013-9-27,70.7,61.5,55.9,61.4,54.9,50.4,95,79,63,31.76,26.76,18,3,18,0.00
2013-9-28,68.7,60.6,47.3,52.9,40.4,30.3,85,52,24,31.76,27.06,15,4,15,0.00
2013-9-29,79.9,58.7,38.8,52.2,44.0,38.1,98,66,24,27.25,26.94,15,3,15,0.00
2013-9-30,86.0,64.9,45.7,67.7,47.2,39.1,92,60,22,27.37,26.84,13,3,13,0.00
2013-10-1,77.5,63.4,51.6,51.6,44.7,31.3,84,56,22,27.37,26.91,13,3,13,0.00
2013-10-2,82.0,63.9,48.0,63.6,54.1,45.4,95,73,47,27.19,26.93,16,2,16,0.00
2013-10-3,64.0,57.1,54.5,58.0,52.7,42.2,99,86,53,27.19,26.85,21,4,21,0.00
2013-10-4,59.4,51.1,39.0,59.1,46.1,31.9,99,84,56,27.17,27.01,22,8,22,0.00
2013-10-5,50.7,43.0,37.4,32.1,29.2,20.0,76,59,37,27.21,26.96,24,10,24,0.00
2013-10-6,69.1,52.2,38.1,38.2,33.0,28.8,75,51,26,27.26,27.17,21,7,21,0.00
2013-10-7,82.4,56.8,34.0,47.0,37.7,31.1,95,58,19,27.26,27.04,8,2,9,0.00
2013-10-8,83.1,62.2,41.7,51.4,38.1,30.2,84,48,16,27.17,26.82,22,4,22,0.00
2013-10-9,79.5,60.1,45.1,48.6,42.9,39.2,82,55,33,27.17,26.85,8,2,8,0.00
2013-10-10,84.4,58.1,46.2,56.6,46.6,41.5,97,71,26,28.05,27.17,23,4,31,0.00
2013-10-11,62.1,54.9,46.2,53.1,44.5,38.1,97,70,43,28.05,27.01,20,6,21,0.00
2013-10-12,63.1,49.8,40.1,42.3,38.5,6.1,92,68,32,28.05,27.16,7,2,7,0.05
2013-10-13,67.8,52.8,35.6,51.4,39.3,32.0,94,64,33,27.40,27.17,21,6,24,0.00
2013-10-14,75.0,57.9,43.3,62.6,51.1,34.7,99,79,35,27.17,26.77,22,9,22,0.00
2013-10-15,50.2,42.6,34.0,34.9,32.1,28.3,80,67,52,27.32,27.14,23,10,23,0.00
2013-10-16,73.8,41.0,25.2,59.9,29.5,21.8,94,68,34,27.32,26.93,10,2,10,0.00
2013-10-17,57.0,41.5,29.1,53.2,31.4,26.6,91,70,44,27.23,26.89,20,5,20,0.00
2013-10-18,51.3,40.8,30.9,42.1,31.5,23.8,99,72,37,27.26,27.17,17,3,17,0.00
2013-10-19,66.6,44.2,26.4,38.1,27.6,19.3,89,59,22,27.20,26.99,14,2,14,0.00
2013-10-20,60.1,46.4,35.4,45.6,35.1,28.5,87,67,34,27.20,26.93,20,5,20,0.00
2013-10-21,61.7,45.0,27.9,40.1,32.7,24.5,94,67,32,27.24,27.11,16,2,16,0.00
2013-10-22,78.6,54.5,41.7,56.2,38.9,27.8,81,58,24,27.22,26.87,21,4,21,0.00
2013-10-23,69.6,50.0,32.7,62.7,36.1,29.5,96,64,27,27.34,26.91,16,4,16,0.00
2013-10-24,51.3,40.5,32.2,40.7,34.8,28.5,90,80,66,27.47,27.34,9,2,9,0.00
2013-10-25,64.6,44.8,29.3,42.8,35.5,27.3,97,73,44,27.42,27.14,13,3,13,0.00
2013-10-26,62.6,47.6,36.0,42.3,34.5,30.1,95,65,30,27.41,27.20,18,3,18,0.00
2013-10-27,78.3,51.6,31.3,43.5,32.5,24.3,91,56,16,27.36,26.92,8,2,8,0.00
2013-10-28,59.4,43.8,38.1,52.1,36.1,31.4,99,75,55,27.20,27.01,13,4,13,0.00
2013-10-29,45.5,38.2,35.1,39.5,37.2,31.7,99,96,76,27.30,27.07,13,5,13,0.00
2013-10-30,57.2,42.2,33.1,43.3,37.1,28.5,99,84,55,27.30,26.90,8,2,8,0.00
2013-10-31,61.9,42.0,29.5,37.3,29.2,23.2,94,67,23,27.30,26.81,22,5,22,0.00
2013-11-1,58.1,48.3,35.2,38.2,28.5,16.6,82,50,23,27.30,26.90,21,8,21,0.00
2013-11-2,63.7,42.6,23.2,33.4,23.3,16.3,77,52,21,27.35,26.97,17,5,17,0.00
2013-11-3,65.1,44.3,33.1,37.2,30.8,25.3,81,61,32,27.17,26.67,9,3,9,0.00
2013-11-4,53.2,42.9,32.2,38.0,31.9,23.8,94,67,41,27.21,26.82,56,4,56,0.00
2013-11-5,37.8,35.1,30.4,37.3,32.8,17.8,99,92,48,27.26,27.05,14,4,14,0.00
2013-11-6,59.9,34.5,19.8,36.7,25.8,17.3,92,73,40,27.40,27.24,12,2,12,0.00
2013-11-7,58.1,40.0,25.2,36.1,30.3,22.1,93,71,39,27.53,27.21,9,2,9,0.00
2013-11-8,71.2,47.9,29.1,38.9,31.7,22.7,89,60,16,27.19,26.87,16,3,16,0.00
2013-11-9,63.9,45.0,31.1,39.1,30.6,16.6,92,64,22,27.40,27.11,13,2,13,0.00
2013-11-10,61.7,42.3,27.0,47.8,35.8,22.2,93,79,58,27.41,27.23,15,3,15,0.00
2013-11-11,36.0,31.5,26.8,34.7,26.4,18.3,96,82,68,27.79,27.21,17,6,17,0.00
2013-11-12,76.3,35.3,16.3,52.8,26.1,10.9,87,70,44,29.73,27.14,14,4,14,0.00
2013-11-13,76.3,43.0,21.7,71.1,29.3,18.2,92,64,24,27.49,27.02,8,1,8,0.13
2013-11-14,59.5,47.7,35.2,41.9,35.8,27.8,82,65,40,27.17,27.01,15,5,15,0.00
2013-11-17,52.0,42.2,23.9,27.8,13.9,3.5,63,34,21,29.91,26.65,29,9,29,0.00
2013-11-18,64.4,37.6,18.1,22.3,15.4,7.6,70,45,17,27.30,27.15,16,3,16,0.00
2013-11-19,57.6,39.2,23.7,31.6,23.3,13.8,74,55,32,27.17,26.84,15,3,98,0.00
2013-11-20,64.8,44.7,20.3,37.0,28.6,9.3,95,58,22,27.31,26.86,15,2,15,0.13
2013-11-21,40.5,21.4,16.9,31.1,11.2,6.4,73,64,57,27.70,27.11,29,13,29,0.00
2013-11-22,71.2,23.0,14.2,17.5,11.1,4.9,74,61,43,27.73,26.87,9,3,9,0.00
2013-11-23,40.8,23.7,16.3,37.5,12.6,7.9,92,63,46,27.82,27.18,8,2,8,0.00
2013-11-24,45.5,28.3,13.1,33.9,19.0,6.3,89,69,46,27.61,27.14,30,6,30,0.00
2013-11-25,47.7,29.6,15.1,29.0,16.0,8.8,85,60,27,27.38,27.14,20,4,20,0.00
2013-11-26,45.0,26.2,13.1,30.6,14.8,3.5,84,63,45,27.71,27.38,17,4,17,0.00
2013-11-27,62.4,32.2,11.1,29.6,16.5,2.7,79,57,22,27.47,27.07,8,2,8,0.00
2013-11-28,44.8,30.4,18.9,34.9,20.6,11.5,84,68,43,27.42,27.02,8,2,8,0.00
2013-11-29,59.4,28.0,14.7,35.6,19.7,9.1,86,72,41,27.41,26.66,9,2,9,0.00
2013-11-30,62.2,36.3,20.8,33.6,22.0,17.0,87,62,23,27.26,26.54,12,3,12,0.00
2013-12-1,60.8,36.6,20.1,34.0,24.1,8.0,86,64,30,27.24,26.93,13,2,13,0.13
2013-12-2,65.8,44.0,28.9,35.4,26.4,8.5,79,54,22,27.29,26.67,8,1,8,0.00
2013-12-3,55.4,36.5,21.6,34.1,25.5,11.6,84,65,43,26.91,26.87,23,7,23,0.00
2013-12-4,31.8,16.5,9.1,13.2,1.1,-9.4,80,51,38,27.26,26.89,29,13,29,0.07
2013-12-5,9.1,9.1,9.1,-9.4,-9.4,-9.4,42,42,42,27.26,27.26,7,7,7,0.00
2013-12-6,9.1,8.8,-2.0,-9.4,-9.6,-17.5,47,42,42,27.59,27.26,7,7,7,0.00
2013-12-7,23.7,4.5,-4.7,15.7,-9.4,-18.5,71,52,34,27.75,27.18,14,6,14,0.00
2013-12-8,32.5,8.3,-7.6,16.7,-0.7,-19.2,85,66,51,27.63,27.02,10,3,97,0.00
2013-12-9,41.0,7.6,-9.6,5.9,-5.7,-21.6,64,54,42,27.34,27.18,10,3,10,0.00
2013-12-10,39.4,21.5,4.1,23.2,8.7,-6.1,74,58,40,27.45,27.09,17,2,17,0.00
2013-12-11,34.3,20.1,5.2,20.6,10.8,-2.8,76,67,56,27.60,27.38,15,3,15,0.00
2013-12-12,47.1,24.1,8.8,27.7,14.0,1.4,79,66,41,27.44,27.07,9,2,9,0.00
2013-12-13,45.1,26.8,13.1,29.7,17.0,7.2,80,67,46,27.42,26.92,13,3,13,0.00
2013-12-14,48.6,30.1,14.9,30.4,18.2,9.8,85,63,34,27.31,27.21,20,4,20,0.00
2013-12-15,58.5,37.5,21.4,26.7,20.1,13.8,84,53,26,27.25,27.09,17,3,17,0.00
2013-12-16,63.9,38.3,21.4,28.0,19.0,14.0,75,50,20,27.31,26.69,9,2,9,0.00
2013-12-17,54.9,35.8,19.4,28.6,19.1,13.1,78,54,26,27.44,27.12,13,3,13,0.00
2013-12-18,67.8,36.6,26.1,28.7,17.7,-2.4,67,49,17,27.15,26.84,13,1,13,0.00
2013-12-19,43.3,30.8,14.4,29.3,20.4,4.7,82,65,55,27.08,27.01,23,6,23,0.00
2013-12-20,95.0,17.8,9.3,69.0,2.8,-2.9,65,52,42,27.22,26.90,22,5,22,0.00
2013-12-21,38.7,20.0,6.1,20.8,7.6,-17.4,73,59,43,27.56,26.78,10,2,10,0.00
2013-12-22,37.2,25.3,13.3,20.4,13.2,-0.9,85,61,38,27.40,27.01,12,2,12,0.00
2013-12-23,25.9,15.9,7.5,16.2,6.8,-14.2,84,67,45,27.55,27.19,12,3,12,0.00
2013-12-24,43.0,23.1,5.0,36.4,16.6,-3.0,91,76,61,27.37,27.09,18,4,18,0.00
2013-12-25,43.3,29.3,19.6,25.9,20.0,14.7,90,71,39,27.47,27.32,18,3,18,0.00
2013-12-26,53.8,33.7,18.0,27.1,17.2,3.1,77,56,25,27.38,27.24,15,3,15,0.00
2013-12-27,61.3,49.4,23.9,25.5,22.7,18.3,79,39,22,27.33,27.16,8,2,8,0.00
2013-12-28,59.7,32.5,15.8,31.6,17.1,1.7,73,54,24,27.35,26.91,27,16,27,0.00
2013-12-29,29.5,17.5,8.8,8.3,1.8,-3.7,64,50,32,27.46,27.12,21,6,21,0.00
2013-12-30,49.8,32.2,18.7,27.8,17.4,8.3,77,56,29,27.30,27.08,26,5,26,0.00
2013-12-31,57.7,33.8,18.7,28.8,19.0,9.5,75,58,27,27.28,27.03,20,3,20,0.00
2014-1-1,65.5,25.2,18.0,20.9,17.4,10.9,83,72,17,27.42,26.84,13,4,13,0.00
2014-1-2,42.6,26.1,11.7,27.1,17.8,7.0,85,72,50,27.41,26.87,8,2,8,0.00